Time;durP1;ratioP1;P1;durP2;ratioP2;P2;SDS_P1;SDS_P2;PMS_P1;PMS_P2;Temp;Humidity;BMP_temperature;BMP_pressure;BME280_temperature;BME280_humidity;BME280_pressure;Samples;Min_cycle;Max_cycle;Signal;HPM_P1;HPM_P2
2022/07/26 00:01:53;;;;;;;16.77;9.15;;;;;;;17.93;100.00;96195.13;5054342;28;20090;-80
2022/07/26 00:04:21;;;;;;;11.00;8.48;;;;;;;17.90;100.00;96204.09;5054144;28;20107;-79
2022/07/26 00:06:47;;;;;;;17.17;8.25;;;;;;;17.90;100.00;96193.09;5056739;28;20048;-79
2022/07/26 00:09:14;;;;;;;15.02;9.60;;;;;;;17.97;100.00;96165.66;5055010;28;20048;-80
2022/07/26 00:11:40;;;;;;;16.20;9.88;;;;;;;17.81;100.00;96165.03;5055064;28;20045;-80
2022/07/26 00:14:08;;;;;;;15.45;9.00;;;;;;;17.83;100.00;96179.22;5051079;28;20045;-79
2022/07/26 00:16:36;;;;;;;16.85;9.25;;;;;;;17.92;100.00;96163.22;5053564;28;20048;-79
2022/07/26 00:19:02;;;;;;;15.02;9.18;;;;;;;17.78;100.00;96156.69;5052449;28;20098;-79
2022/07/26 00:21:30;;;;;;;13.38;8.27;;;;;;;17.83;100.00;96170.94;5049800;28;20489;-79
2022/07/26 00:23:57;;;;;;;12.18;8.73;;;;;;;17.91;100.00;96167.16;5052118;28;20696;-79
2022/07/26 00:26:24;;;;;;;14.68;9.50;;;;;;;18.06;100.00;96164.59;5052015;28;20055;-79
2022/07/26 00:28:50;;;;;;;12.60;8.60;;;;;;;18.04;100.00;96164.97;5051696;28;20045;-79
2022/07/26 00:31:16;;;;;;;12.68;8.77;;;;;;;18.08;100.00;96165.03;5053487;28;20045;-80
2022/07/26 00:33:43;;;;;;;12.57;8.95;;;;;;;18.08;100.00;96165.84;5058564;28;20063;-80
2022/07/26 00:36:10;;;;;;;13.77;8.23;;;;;;;18.09;100.00;96167.41;5058366;28;20049;-79
2022/07/26 00:38:38;;;;;;;13.32;8.80;;;;;;;18.11;100.00;96164.28;5056087;28;20045;-80
2022/07/26 00:41:04;;;;;;;15.27;8.88;;;;;;;18.06;100.00;96175.63;5054794;28;20052;-79
2022/07/26 00:43:31;;;;;;;12.52;8.02;;;;;;;18.05;100.00;96174.03;5056153;28;20415;-80
2022/07/26 00:45:57;;;;;;;13.35;7.80;;;;;;;18.07;100.00;96166.22;5055701;28;20048;-78
2022/07/26 00:48:24;;;;;;;15.15;8.80;;;;;;;18.07;100.00;96180.00;5055325;28;20051;-79
2022/07/26 00:50:53;;;;;;;11.82;7.40;;;;;;;18.17;100.00;96171.09;5054863;28;20045;-79
2022/07/26 00:53:21;;;;;;;11.52;7.82;;;;;;;18.18;100.00;96169.91;5055935;28;20052;-79
2022/07/26 00:55:49;;;;;;;10.07;7.30;;;;;;;18.18;100.00;96175.44;5054643;28;20052;-79
2022/07/26 00:58:16;;;;;;;11.43;7.88;;;;;;;18.20;100.00;96162.06;5053677;28;20515;-78
2022/07/26 01:00:43;;;;;;;11.93;7.47;;;;;;;18.15;100.00;96159.63;5056389;28;20408;-80
2022/07/26 01:03:10;;;;;;;11.15;7.00;;;;;;;18.14;100.00;96158.03;5055015;28;20072;-79
2022/07/26 01:05:36;;;;;;;12.50;7.72;;;;;;;18.17;100.00;96157.31;5054972;28;20507;-78
2022/07/26 01:08:03;;;;;;;10.18;7.45;;;;;;;18.09;100.00;96139.06;5053994;28;20049;-78
2022/07/26 01:10:30;;;;;;;8.90;6.85;;;;;;;18.23;100.00;96140.06;5058161;28;20045;-80
2022/07/26 01:12:58;;;;;;;10.90;6.85;;;;;;;18.26;100.00;96139.31;5057655;28;20041;-79
2022/07/26 01:15:24;;;;;;;12.00;7.45;;;;;;;18.36;100.00;96137.06;5056657;28;20048;-80
2022/07/26 01:17:51;;;;;;;12.13;7.30;;;;;;;18.38;100.00;96134.75;5058469;28;20044;-80
2022/07/26 01:20:17;;;;;;;10.88;6.60;;;;;;;18.47;100.00;96133.28;5057443;28;20400;-81
2022/07/26 01:22:45;;;;;;;9.63;6.15;;;;;;;18.50;100.00;96138.06;5056197;28;20400;-79
2022/07/26 01:25:12;;;;;;;11.70;6.97;;;;;;;18.57;100.00;96142.06;5054416;28;20052;-80
2022/07/26 01:27:39;;;;;;;10.73;6.35;;;;;;;18.42;100.00;96146.59;5056802;28;20041;-80
2022/07/26 01:30:08;;;;;;;9.45;5.90;;;;;;;18.39;100.00;96145.41;5054819;28;20053;-80
2022/07/26 01:32:35;;;;;;;8.82;6.50;;;;;;;18.50;100.00;96145.53;5055026;28;20037;-79
2022/07/26 01:35:02;;;;;;;9.43;6.47;;;;;;;18.63;100.00;96140.56;5055534;28;20067;-79
2022/07/26 01:37:31;;;;;;;9.68;5.95;;;;;;;18.68;100.00;96138.31;5055852;28;20055;-80
2022/07/26 01:39:59;;;;;;;10.07;6.22;;;;;;;18.68;100.00;96132.00;5056038;28;20052;-80
2022/07/26 01:42:25;;;;;;;10.70;6.60;;;;;;;18.78;100.00;96132.13;5054742;28;20049;-80
2022/07/26 01:44:52;;;;;;;9.57;6.03;;;;;;;18.83;100.00;96131.00;5054901;28;20491;-79
2022/07/26 01:47:18;;;;;;;9.07;6.15;;;;;;;18.80;100.00;96136.50;5055026;28;20041;-79
2022/07/26 01:49:45;;;;;;;9.07;6.25;;;;;;;18.86;100.00;96126.69;5054797;28;20040;-80
2022/07/26 01:52:11;;;;;;;8.48;6.57;;;;;;;18.85;100.00;96128.66;5054415;28;20045;-79
2022/07/26 01:54:38;;;;;;;10.02;5.97;;;;;;;18.93;100.00;96127.56;5056352;28;20048;-79
2022/07/26 01:57:05;;;;;;;8.13;6.28;;;;;;;18.87;100.00;96133.81;5053122;28;20688;-79
2022/07/26 01:59:32;;;;;;;10.13;6.78;;;;;;;18.78;100.00;96136.84;5055005;28;20048;-79
2022/07/26 02:01:58;;;;;;;8.82;6.20;;;;;;;18.49;100.00;96130.97;5055098;28;20049;-79
2022/07/26 02:07:09;;;;;;;10.02;6.63;;;;;;;18.63;100.00;96129.53;5053707;28;20055;-79
2022/07/26 02:09:35;;;;;;;10.63;6.88;;;;;;;18.52;100.00;96138.47;5053770;28;20484;-79
2022/07/26 02:12:02;;;;;;;9.02;6.30;;;;;;;18.67;100.00;96133.13;5054331;28;20053;-79
2022/07/26 02:14:30;;;;;;;9.77;6.57;;;;;;;18.78;100.00;96125.81;5057452;28;20041;-80
2022/07/26 02:16:58;;;;;;;9.68;6.45;;;;;;;18.84;100.00;96124.31;5054954;28;20041;-79
2022/07/26 02:19:26;;;;;;;10.30;7.07;;;;;;;18.93;100.00;96127.56;5053027;28;20044;-78
2022/07/26 02:21:52;;;;;;;12.02;6.63;;;;;;;18.92;100.00;96131.50;5042460;28;20731;-79
2022/07/26 02:24:19;;;;;;;10.18;6.38;;;;;;;18.94;100.00;96123.63;5034530;28;20049;-79
2022/07/26 02:26:45;;;;;;;9.45;6.88;;;;;;;18.97;100.00;96125.63;5034497;28;20049;-79
2022/07/26 02:29:12;;;;;;;9.57;6.30;;;;;;;18.93;100.00;96122.03;5034081;28;20052;-80
2022/07/26 02:31:39;;;;;;;9.35;6.18;;;;;;;18.96;100.00;96126.03;5035081;28;20045;-79
2022/07/26 02:34:06;;;;;;;11.05;6.30;;;;;;;19.01;100.00;96111.88;5033542;28;20050;-79
2022/07/26 02:36:33;;;;;;;8.95;5.70;;;;;;;19.03;100.00;96123.34;5033579;28;20053;-79
2022/07/26 02:38:59;;;;;;;10.48;6.13;;;;;;;19.04;100.00;96117.44;5034099;28;20041;-79
2022/07/26 02:41:26;;;;;;;8.95;6.30;;;;;;;19.09;100.00;96123.78;5033378;28;20037;-79
2022/07/26 02:43:52;;;;;;;8.43;5.90;;;;;;;19.14;100.00;96128.97;5034535;28;20539;-79
2022/07/26 02:46:19;;;;;;;8.98;5.80;;;;;;;19.09;100.00;96129.31;5034570;28;20045;-79
2022/07/26 02:48:47;;;;;;;11.20;6.32;;;;;;;19.03;100.00;96140.69;5036154;28;20463;-79
2022/07/26 02:51:13;;;;;;;8.20;6.07;;;;;;;18.99;100.00;96142.59;5037064;28;20052;-79
2022/07/26 02:53:40;;;;;;;8.18;5.53;;;;;;;19.01;100.00;96150.53;5038173;28;20068;-79
2022/07/26 02:56:07;;;;;;;10.10;5.70;;;;;;;19.04;100.00;96139.50;5035874;28;20041;-78
2022/07/26 02:58:33;;;;;;;7.32;5.25;;;;;;;19.07;100.00;96131.66;5035324;28;20045;-77
2022/07/26 03:01:00;;;;;;;9.63;5.18;;;;;;;19.00;100.00;96127.66;5033664;28;20041;-78
2022/07/26 03:03:26;;;;;;;7.90;5.28;;;;;;;19.06;100.00;96130.06;5034983;28;20064;-80
2022/07/26 03:05:54;;;;;;;8.77;5.50;;;;;;;19.06;100.00;96130.88;5036571;28;20390;-78
2022/07/26 03:08:21;;;;;;;8.00;5.70;;;;;;;19.00;100.00;96127.66;5035123;28;20506;-79
2022/07/26 03:10:48;;;;;;;6.68;5.03;;;;;;;18.91;100.00;96134.66;5032703;28;20390;-78
2022/07/26 03:13:14;;;;;;;8.40;5.20;;;;;;;18.95;100.00;96133.50;5033032;28;20535;-79
2022/07/26 03:15:40;;;;;;;8.40;5.05;;;;;;;18.94;100.00;96123.63;5032182;28;20056;-78
2022/07/26 03:18:07;;;;;;;7.60;4.65;;;;;;;19.05;100.00;96129.25;5031159;28;20493;-78
2022/07/26 03:20:34;;;;;;;6.80;4.68;;;;;;;19.00;100.00;96126.84;5034258;28;20044;-78
2022/07/26 03:23:01;;;;;;;6.90;4.90;;;;;;;18.89;100.00;96135.00;5051544;28;20515;-78
2022/07/26 03:25:28;;;;;;;10.30;4.53;;;;;;;18.64;100.00;96140.22;5051015;28;20044;-78
2022/07/26 03:27:55;;;;;;;8.48;4.68;;;;;;;18.67;100.00;96133.13;5050997;28;20037;-77
2022/07/26 03:30:22;;;;;;;10.32;4.95;;;;;;;18.62;100.00;96123.22;5050121;28;20045;-78
2022/07/26 03:32:48;;;;;;;8.60;4.90;;;;;;;18.65;100.00;96127.22;5050720;28;20048;-77
2022/07/26 03:35:15;;;;;;;10.73;4.80;;;;;;;18.60;100.00;96133.06;5051753;28;20420;-79
2022/07/26 03:37:42;;;;;;;10.25;5.30;;;;;;;18.61;100.00;96127.16;5052382;28;20508;-79
2022/07/26 03:40:10;;;;;;;7.20;5.30;;;;;;;18.58;100.00;96132.63;5051109;28;20055;-77
2022/07/26 03:42:37;;;;;;;11.43;5.80;;;;;;;18.66;100.00;96128.78;5051049;28;20045;-79
2022/07/26 03:45:04;;;;;;;6.35;4.78;;;;;;;18.66;100.00;96131.56;5051627;28;20052;-78
2022/07/26 03:47:30;;;;;;;9.23;4.68;;;;;;;18.68;100.00;96115.44;5051244;28;20397;-78
2022/07/26 03:49:57;;;;;;;7.35;4.88;;;;;;;18.77;100.00;96113.19;5050964;28;20048;-78
2022/07/26 03:52:23;;;;;;;8.50;5.05;;;;;;;18.90;100.00;96122.81;5049468;28;20049;-78
2022/07/26 03:54:50;;;;;;;9.40;5.07;;;;;;;18.93;100.00;96116.53;5051391;28;20052;-79
2022/07/26 03:57:17;;;;;;;6.95;4.35;;;;;;;18.97;100.00;96122.88;5050135;28;20140;-78
2022/07/26 03:59:43;;;;;;;11.07;5.05;;;;;;;18.72;100.00;96121.81;5050552;28;20047;-79
2022/07/26 04:02:10;;;;;;;8.75;4.80;;;;;;;18.62;100.00;96126.00;5049980;28;20049;-78
2022/07/26 04:04:36;;;;;;;7.60;4.90;;;;;;;18.67;100.00;96122.09;5050556;28;20041;-78
2022/07/26 04:07:03;;;;;;;13.02;5.38;;;;;;;18.63;100.00;96124.03;5049744;28;20040;-79
2022/07/26 04:09:29;;;;;;;10.68;4.82;;;;;;;18.63;100.00;96124.81;5050350;28;20413;-79
2022/07/26 04:11:56;;;;;;;8.02;5.15;;;;;;;18.62;100.00;96122.44;5050688;28;20377;-78
2022/07/26 04:14:24;;;;;;;10.15;5.40;;;;;;;18.46;100.00;96120.69;5049857;28;20526;-79
2022/07/26 04:16:50;;;;;;;11.55;5.30;;;;;;;18.36;100.00;96123.28;5050361;28;20049;-78
2022/07/26 04:19:17;;;;;;;10.52;5.50;;;;;;;18.44;100.00;96128.53;5049555;28;20049;-78
2022/07/26 04:21:43;;;;;;;9.93;5.40;;;;;;;18.60;100.00;96128.34;5048196;28;20408;-79
2022/07/26 04:24:10;;;;;;;13.82;5.68;;;;;;;18.65;100.00;96132.72;5049933;28;20041;-79
2022/07/26 04:26:36;;;;;;;10.35;5.95;;;;;;;18.69;100.00;96128.09;5050243;28;20036;-79
2022/07/26 04:29:03;;;;;;;9.73;6.03;;;;;;;18.55;100.00;96125.13;5049799;28;20056;-78
2022/07/26 04:31:31;;;;;;;13.52;6.32;;;;;;;18.37;100.00;96122.91;5049484;28;20045;-79
2022/07/26 04:33:57;;;;;;;12.85;6.00;;;;;;;18.40;100.00;96138.72;5049994;28;20048;-79
2022/07/26 04:36:24;;;;;;;9.48;5.30;;;;;;;18.54;100.00;96149.16;5049897;28;20492;-78
2022/07/26 04:38:50;;;;;;;10.30;5.32;;;;;;;18.67;100.00;96142.19;5049997;28;20045;-79
2022/07/26 04:41:17;;;;;;;17.08;5.68;;;;;;;18.70;100.00;96147.00;5049357;28;20049;-78
2022/07/26 04:43:43;;;;;;;9.68;5.47;;;;;;;18.66;100.00;96140.63;5050224;28;20041;-79
2022/07/26 04:46:10;;;;;;;9.52;5.32;;;;;;;18.76;100.00;96147.47;5049376;28;20052;-78
2022/07/26 04:48:38;;;;;;;9.60;5.70;;;;;;;18.70;100.00;96151.75;5050166;28;20049;-80
2022/07/26 04:51:05;;;;;;;9.70;4.80;;;;;;;18.70;100.00;96147.00;5047978;28;20539;-78
2022/07/26 04:53:31;;;;;;;10.15;4.93;;;;;;;18.77;100.00;96149.06;5049523;28;20411;-78
2022/07/26 04:55:58;;;;;;;8.48;5.15;;;;;;;18.89;100.00;96148.78;5049974;28;20107;-79
2022/07/26 04:58:25;;;;;;;11.65;5.85;;;;;;;18.81;100.00;96147.13;5049413;28;20488;-79
2022/07/26 05:00:51;;;;;;;11.43;5.32;;;;;;;18.82;100.00;96148.72;5049971;28;20049;-79
2022/07/26 05:03:18;;;;;;;8.55;4.93;;;;;;;18.91;100.00;96154.75;5049255;28;20103;-81
2022/07/26 05:05:46;;;;;;;11.18;5.57;;;;;;;18.81;100.00;96147.13;5049961;28;20052;-78
2022/07/26 05:08:15;;;;;;;9.30;5.43;;;;;;;18.56;100.00;96152.31;5050876;28;20048;-78
2022/07/26 05:10:41;;;;;;;7.47;4.70;;;;;;;18.74;100.00;96155.31;5050229;28;20087;-79
2022/07/26 05:13:08;;;;;;;8.15;4.97;;;;;;;18.87;100.00;96151.16;5049274;28;20052;-78
2022/07/26 05:15:36;;;;;;;9.43;5.13;;;;;;;18.69;100.00;96161.19;5050226;28;20492;-79
2022/07/26 05:18:04;;;;;;;9.88;5.28;;;;;;;18.86;100.00;96157.03;5050101;28;20045;-78
2022/07/26 05:20:30;;;;;;;9.30;5.50;;;;;;;18.89;100.00;96157.06;5051574;28;20064;-79
2022/07/26 05:22:59;;;;;;;9.40;5.05;;;;;;;18.96;100.00;96161.91;5053643;28;20547;-79
2022/07/26 05:25:25;;;;;;;9.52;5.40;;;;;;;18.91;100.00;96157.50;5053270;28;20048;-79
2022/07/26 05:27:52;;;;;;;9.65;5.82;;;;;;;18.98;100.00;96163.09;5054290;28;20044;-79
2022/07/26 05:30:19;;;;;;;8.25;5.75;;;;;;;19.04;100.00;96167.09;5052481;28;20059;-79
2022/07/26 05:32:45;;;;;;;8.80;5.60;;;;;;;18.98;100.00;96160.34;5053196;28;20050;-79
2022/07/26 05:35:12;;;;;;;9.43;5.28;;;;;;;19.08;100.00;96161.63;5053049;28;20045;-80
2022/07/26 05:37:38;;;;;;;12.70;6.50;;;;;;;18.95;100.00;96166.63;5053411;28;20484;-79
2022/07/26 05:40:07;;;;;;;14.27;6.03;;;;;;;18.98;100.00;96167.81;5052706;28;20045;-79
2022/07/26 05:42:34;;;;;;;9.52;6.03;;;;;;;18.99;100.00;96172.94;5053329;28;20067;-80
2022/07/26 05:45:00;;;;;;;12.60;5.95;;;;;;;19.03;100.00;96171.03;5053162;28;20052;-79
2022/07/26 05:47:27;;;;;;;12.85;5.97;;;;;;;18.91;100.00;96179.56;5053845;28;20515;-79
2022/07/26 05:49:54;;;;;;;11.25;5.95;;;;;;;18.98;100.00;96178.84;5054093;28;20045;-78
2022/07/26 05:52:20;;;;;;;9.70;6.00;;;;;;;19.03;100.00;96176.56;5053199;28;20052;-80
2022/07/26 05:54:47;;;;;;;8.80;6.40;;;;;;;19.10;100.00;96181.34;5053485;28;20041;-79
2022/07/26 05:57:14;;;;;;;12.35;6.35;;;;;;;19.14;100.00;96181.41;5052748;28;20059;-79
2022/07/26 05:59:41;;;;;;;12.95;6.13;;;;;;;18.96;100.00;96176.47;5062684;28;20049;-80
2022/07/26 06:02:08;;;;;;;7.85;5.93;;;;;;;18.87;100.00;96184.25;5071284;28;20045;-79
2022/07/26 06:04:35;;;;;;;12.90;6.88;;;;;;;18.86;100.00;96171.63;5070521;28;20174;-81
2022/07/26 06:07:02;;;;;;;17.77;7.05;;;;;;;18.94;100.00;96178.81;5070941;28;20052;-76
2022/07/26 06:09:29;;;;;;;16.15;6.50;;;;;;;18.71;100.00;96178.16;5071959;28;20055;-81
2022/07/26 06:11:55;;;;;;;10.40;6.72;;;;;;;18.79;100.00;96182.56;5073081;28;20037;-80
2022/07/26 06:14:30;;;;;;;10.70;6.18;;;;;;;18.67;100.00;96177.25;5071225;28;20056;-81
2022/07/26 06:16:56;;;;;;;11.77;6.43;;;;;;;18.85;100.00;96175.56;5056310;28;20079;-81
2022/07/26 06:19:23;;;;;;;11.30;6.80;;;;;;;18.87;100.00;96178.72;5070731;28;20053;-81
2022/07/26 06:21:49;;;;;;;12.95;5.68;;;;;;;18.90;100.00;96175.22;5073605;28;20041;-82
2022/07/26 06:24:16;;;;;;;8.93;5.55;;;;;;;18.65;100.00;96169.38;5148848;23;20050;-81
2022/07/26 06:26:45;;;;;;;11.82;5.80;;;;;;;18.77;100.00;96176.63;5050179;28;20120;-79
2022/07/26 06:29:12;;;;;;;11.10;6.13;;;;;;;18.81;100.00;96182.22;5049648;28;20041;-81
2022/07/26 06:31:40;;;;;;;9.30;5.78;;;;;;;18.73;100.00;96184.06;5047683;28;20584;-78
2022/07/26 06:34:06;;;;;;;9.60;5.90;;;;;;;18.95;100.00;96183.19;5041154;28;20045;-77
2022/07/26 06:36:33;;;;;;;8.32;6.20;;;;;;;18.99;100.00;96184.00;5031713;28;20049;-77
2022/07/26 06:38:59;;;;;;;9.25;6.28;;;;;;;18.78;100.00;96186.50;5031398;28;20137;-77
2022/07/26 06:41:26;;;;;;;11.02;6.30;;;;;;;18.90;100.00;96186.28;5030701;28;20041;-77
2022/07/26 06:43:52;;;;;;;9.48;5.85;;;;;;;18.85;100.00;96186.59;5031603;28;20524;-77
2022/07/26 06:46:19;;;;;;;8.88;5.90;;;;;;;18.99;100.00;96188.72;5030927;28;20089;-77
2022/07/26 06:48:47;;;;;;;10.07;5.22;;;;;;;19.14;100.00;96189.69;5031675;28;20049;-77
2022/07/26 06:51:14;;;;;;;11.32;5.47;;;;;;;18.84;100.00;96190.50;5030213;28;20056;-77
2022/07/26 06:53:40;;;;;;;12.15;6.10;;;;;;;18.91;100.00;96193.38;5031583;28;20045;-78
2022/07/26 06:56:08;;;;;;;10.25;5.35;;;;;;;19.12;100.00;96189.28;5030793;28;20569;-77
2022/07/26 06:58:34;;;;;;;8.88;6.68;;;;;;;19.04;100.00;96194.69;5031404;28;20049;-77
2022/07/26 07:01:01;;;;;;;11.85;6.38;;;;;;;19.04;100.00;96188.38;5031141;28;20072;-78
2022/07/26 07:03:27;;;;;;;12.05;6.28;;;;;;;18.97;100.00;96197.38;5030710;28;20128;-77
2022/07/26 07:05:55;;;;;;;9.55;6.60;;;;;;;19.04;100.00;96194.69;5031314;28;20050;-77
2022/07/26 07:08:23;;;;;;;10.65;5.82;;;;;;;19.18;100.00;96196.84;5030419;28;20075;-78
2022/07/26 07:10:51;;;;;;;9.43;5.70;;;;;;;19.09;100.00;96198.28;5031255;28;20463;-77
2022/07/26 07:13:17;;;;;;;12.52;6.03;;;;;;;19.20;100.00;96193.69;5030544;28;20049;-77
2022/07/26 07:15:44;;;;;;;9.30;6.15;;;;;;;19.19;100.00;96195.66;5031068;28;20040;-77
2022/07/26 07:18:10;;;;;;;10.70;6.50;;;;;;;19.18;100.00;96196.03;5030384;28;20053;-77
2022/07/26 07:20:38;;;;;;;9.55;6.10;;;;;;;19.08;100.00;96199.47;5028577;28;20042;-77
2022/07/26 07:23:05;;;;;;;10.18;6.35;;;;;;;19.20;100.00;96199.22;5030465;28;20128;-76
2022/07/26 07:25:32;;;;;;;11.55;6.50;;;;;;;19.29;100.00;96200.50;5030644;28;20405;-77
2022/07/26 07:27:59;;;;;;;8.85;5.85;;;;;;;19.30;100.00;96201.28;5030801;28;20055;-77
2022/07/26 07:30:26;;;;;;;9.80;6.20;;;;;;;19.28;100.00;96203.66;5030145;28;20049;-77
2022/07/26 07:32:52;;;;;;;11.30;6.75;;;;;;;19.28;100.00;96198.13;5030527;28;20655;-78
2022/07/26 07:35:19;;;;;;;15.65;7.00;;;;;;;19.32;100.00;96203.69;5030190;28;20081;-77
2022/07/26 07:37:45;;;;;;;10.45;6.80;;;;;;;19.39;100.00;96196.28;5030439;28;20050;-77
2022/07/26 07:40:14;;;;;;;9.63;6.90;;;;;;;19.30;100.00;96199.31;5029727;28;20056;-78
2022/07/26 07:42:41;;;;;;;10.32;6.70;;;;;;;19.23;100.00;96202.03;5030125;28;20050;-77
2022/07/26 07:45:10;;;;;;;11.13;6.13;;;;;;;19.34;100.00;96202.13;5029699;28;20061;-76
2022/07/26 07:47:36;;;;;;;8.82;5.78;;;;;;;19.28;100.00;96198.13;5030324;28;20049;-78
2022/07/26 07:50:03;;;;;;;10.40;5.20;;;;;;;19.29;97.70;96206.03;5029944;28;20049;-78
2022/07/26 07:52:29;;;;;;;5.50;4.10;;;;;;;19.36;94.59;96194.25;5029558;28;20042;-76
2022/07/26 07:54:56;;;;;;;7.88;4.68;;;;;;;19.26;95.13;96197.69;5030210;28;20048;-76
2022/07/26 07:57:23;;;;;;;7.75;4.55;;;;;;;19.24;94.73;96200.03;5029821;28;20041;-77
2022/07/26 07:59:50;;;;;;;9.80;4.57;;;;;;;19.24;95.56;96202.81;5030139;28;20053;-77
2022/07/26 08:02:16;;;;;;;7.78;4.57;;;;;;;19.27;94.63;96202.06;5029487;28;20065;-77
2022/07/26 08:04:43;;;;;;;11.65;4.10;;;;;;;19.33;93.07;96206.06;5030218;28;20048;-78
2022/07/26 08:07:09;;;;;;;7.85;3.70;;;;;;;19.37;91.40;96206.91;5029545;28;20052;-76
2022/07/26 08:09:36;;;;;;;9.02;3.97;;;;;;;19.26;91.58;96206.78;5030115;28;20044;-77
2022/07/26 08:12:03;;;;;;;6.60;4.15;;;;;;;19.07;93.86;96208.94;5029741;28;20250;-77
2022/07/26 08:14:31;;;;;;;7.18;3.85;;;;;;;19.04;93.09;96216.78;5029911;28;20417;-77
2022/07/26 08:16:57;;;;;;;6.78;4.03;;;;;;;18.85;93.31;96207.88;5030103;28;20564;-77
2022/07/26 08:19:24;;;;;;;7.03;4.50;;;;;;;18.75;94.42;96209.34;5029551;28;20057;-77
2022/07/26 08:21:51;;;;;;;9.00;4.88;;;;;;;18.61;94.99;96220.13;5027662;28;20416;-77
2022/07/26 08:24:17;;;;;;;8.18;3.90;;;;;;;18.65;94.30;96210.75;5029223;28;20056;-77
2022/07/26 08:26:44;;;;;;;10.38;3.60;;;;;;;18.59;91.79;96209.50;5029911;28;20052;-77
2022/07/26 08:29:10;;;;;;;5.13;3.45;;;;;;;18.83;92.49;96215.72;5029409;28;20041;-77
2022/07/26 08:31:39;;;;;;;5.78;3.47;;;;;;;18.77;92.87;96213.28;5030029;28;20049;-77
2022/07/26 08:34:05;;;;;;;7.35;3.50;;;;;;;18.91;92.20;96215.44;5029342;28;20049;-77
2022/07/26 08:36:32;;;;;;;6.30;3.55;;;;;;;19.19;93.24;96212.22;5029796;28;20048;-77
2022/07/26 08:38:59;;;;;;;7.68;3.60;;;;;;;19.39;94.39;96221.13;5030032;28;20041;-77
2022/07/26 08:41:26;;;;;;;6.97;3.55;;;;;;;19.39;91.49;96220.31;5029084;28;20041;-77
2022/07/26 08:43:52;;;;;;;9.60;4.30;;;;;;;19.37;89.17;96226.22;5029601;28;20048;-77
2022/07/26 08:46:19;;;;;;;8.75;4.10;;;;;;;19.44;91.23;96229.06;5029221;28;20052;-77
2022/07/26 08:48:47;;;;;;;7.28;4.00;;;;;;;19.51;91.73;96228.34;5029682;28;20413;-77
2022/07/26 08:51:14;;;;;;;6.18;4.20;;;;;;;19.36;91.65;96232.91;5028187;28;20053;-76
2022/07/26 08:53:40;;;;;;;7.15;4.82;;;;;;;19.30;92.41;96240.72;5033263;28;20046;-77
2022/07/26 08:56:07;;;;;;;8.77;4.18;;;;;;;19.30;92.09;96239.94;5033115;28;20049;-78
2022/07/26 08:58:35;;;;;;;9.48;4.40;;;;;;;19.41;92.97;96246.38;5033672;28;20052;-77
2022/07/26 09:01:06;;;;;;;9.20;3.97;;;;;;;19.28;92.52;96247.81;5033277;28;20053;-77
2022/07/26 09:03:36;;;;;;;8.40;4.35;;;;;;;19.32;92.54;96248.66;5033478;28;20041;-77
2022/07/26 09:06:13;;;;;;;6.30;4.25;;;;;;;19.07;93.54;96247.56;5033104;28;20053;-76
2022/07/26 09:08:40;;;;;;;7.38;4.75;;;;;;;19.15;94.54;96249.22;5033545;28;20057;-78
2022/07/26 09:11:27;;;;;;;9.93;4.88;;;;;;;19.15;94.67;96257.50;5032752;28;20045;-78
2022/07/26 09:13:56;;;;;;;9.30;4.50;;;;;;;19.16;94.03;96250.81;5033534;28;20111;-77
2022/07/26 09:16:23;;;;;;;10.93;4.88;;;;;;;19.18;94.07;96260.31;5032873;28;20046;-77
2022/07/26 09:18:50;;;;;;;10.23;4.35;;;;;;;19.03;91.50;96264.88;5033303;28;20044;-78
2022/07/26 09:21:34;;;;;;;7.97;4.55;;;;;;;19.19;90.05;96258.34;5031710;28;20042;-77
2022/07/26 09:24:01;;;;;;;8.98;3.53;;;;;;;19.21;90.33;96264.28;5031337;28;20057;-78
2022/07/26 09:26:28;;;;;;;4.88;3.88;;;;;;;19.01;91.13;96258.94;5032964;28;20066;-78
2022/07/26 09:29:06;;;;;;;8.30;4.78;;;;;;;18.84;91.35;96253.97;5032987;28;20056;-77
2022/07/26 09:31:33;;;;;;;13.40;4.13;;;;;;;19.06;93.35;96251.50;5032839;28;20037;-77
2022/07/26 09:33:59;;;;;;;6.97;4.47;;;;;;;19.11;92.13;96256.69;5032919;28;20049;-78
2022/07/26 09:36:27;;;;;;;7.47;3.72;;;;;;;19.22;88.57;96243.81;5032512;28;20501;-77
2022/07/26 09:38:57;;;;;;;5.13;3.25;;;;;;;19.11;87.51;96243.69;5032940;28;20142;-77
2022/07/26 09:41:27;;;;;;;7.57;3.88;;;;;;;19.30;90.46;96245.47;5032443;28;20041;-78
2022/07/26 09:43:54;;;;;;;8.43;3.72;;;;;;;19.40;90.14;96252.28;5032647;28;20045;-78
2022/07/26 09:46:21;;;;;;;12.23;4.20;;;;;;;19.46;89.97;96248.00;5032388;28;20049;-78
2022/07/26 09:48:48;;;;;;;8.98;3.47;;;;;;;19.53;87.77;96248.88;5032786;28;20046;-77
2022/07/26 09:51:15;;;;;;;7.63;4.10;;;;;;;19.50;85.16;96246.88;5025025;28;20046;-78
2022/07/26 09:53:43;;;;;;;6.57;3.97;;;;;;;19.67;85.60;96247.47;5012946;28;20036;-78
2022/07/26 09:56:12;;;;;;;7.82;3.70;;;;;;;19.58;86.28;96256.03;5012393;28;20129;-77
2022/07/26 09:58:39;;;;;;;10.48;3.80;;;;;;;19.53;85.91;96254.41;5012751;28;20538;-78
2022/07/26 10:01:06;;;;;;;4.93;3.47;;;;;;;19.58;85.82;96252.50;5012425;28;20046;-77
2022/07/26 10:03:34;;;;;;;7.88;3.78;;;;;;;19.66;85.91;96256.94;5012045;28;20049;-78
2022/07/26 10:06:01;;;;;;;9.43;3.85;;;;;;;19.85;84.38;96253.19;5012781;28;20054;-78
2022/07/26 10:08:29;;;;;;;5.65;3.63;;;;;;;20.05;82.35;96252.56;5012551;28;20068;-79
2022/07/26 10:11:03;;;;;;;4.90;3.22;;;;;;;20.16;82.09;96257.41;5012824;28;20061;-77
2022/07/26 10:13:31;;;;;;;5.63;3.13;;;;;;;20.22;84.11;96255.88;5012364;28;20449;-78
2022/07/26 10:15:58;;;;;;;7.65;3.85;;;;;;;20.21;82.76;96255.06;5012868;28;20064;-78
2022/07/26 10:18:46;;;;;;;6.00;3.40;;;;;;;20.25;80.41;96258.63;5012054;28;20038;-78
2022/07/26 10:21:21;;;;;;;6.28;3.67;;;;;;;20.27;78.40;96258.28;5019631;28;20060;-77
2022/07/26 10:23:48;;;;;;;6.30;3.30;;;;;;;20.39;81.13;96260.72;5031880;28;20488;-78
2022/07/26 10:26:41;;;;;;;6.57;2.90;;;;;;;20.43;80.03;96255.22;5031703;28;20052;-77
2022/07/26 10:29:26;;;;;;;4.88;2.75;;;;;;;20.55;78.11;96250.19;5031375;28;20092;-78
2022/07/26 10:32:16;;;;;;;6.18;3.30;;;;;;;20.44;76.54;96246.53;5032240;28;20452;-78
2022/07/26 10:34:43;;;;;;;9.77;3.25;;;;;;;20.74;76.41;96248.34;5031986;28;20049;-78
2022/07/26 10:37:19;;;;;;;6.68;2.80;;;;;;;20.75;70.67;96238.88;5031782;28;20049;-77
2022/07/26 10:39:46;;;;;;;6.32;2.30;;;;;;;21.10;73.29;96239.03;5031991;28;20042;-77
2022/07/26 10:42:12;;;;;;;4.47;2.30;;;;;;;21.44;71.41;96236.00;5031321;28;20057;-78
2022/07/26 10:44:43;;;;;;;5.25;2.85;;;;;;;21.72;73.49;96238.06;5031818;28;20405;-78
2022/07/26 10:47:17;;;;;;;8.40;2.30;;;;;;;21.67;69.59;96245.97;5031474;28;20050;-78
2022/07/26 10:49:56;;;;;;;6.53;2.47;;;;;;;21.68;71.16;96247.56;5032124;28;20045;-78
2022/07/26 10:52:26;;;;;;;5.75;2.10;;;;;;;21.77;67.77;96237.69;5030354;28;20068;-78
2022/07/26 10:55:10;;;;;;;3.45;2.13;;;;;;;21.95;65.88;96228.59;5031601;28;20045;-78
2022/07/26 10:57:38;;;;;;;7.43;2.30;;;;;;;22.09;67.71;96225.81;5031509;28;20041;-78
2022/07/26 11:00:13;;;;;;;5.68;2.58;;;;;;;22.34;68.26;96225.81;5031282;28;20676;-77
2022/07/26 11:02:42;;;;;;;5.65;2.25;;;;;;;22.63;66.23;96224.59;5031479;28;20050;-78
2022/07/26 11:05:13;;;;;;;7.07;2.53;;;;;;;22.47;62.69;96229.78;5031146;28;20576;-78
2022/07/26 11:07:54;;;;;;;5.88;2.45;;;;;;;22.18;64.26;96233.75;5031215;28;20089;-78
2022/07/26 11:10:26;;;;;;;6.90;1.95;;;;;;;22.04;59.21;96234.53;5030799;28;20531;-77
2022/07/26 11:13:03;;;;;;;4.03;2.10;;;;;;;22.08;62.98;96233.34;5031456;28;20432;-77
2022/07/26 11:15:32;;;;;;;5.45;2.35;;;;;;;22.21;61.80;96227.44;5029896;28;20038;-77
2022/07/26 11:18:15;;;;;;;5.60;2.28;;;;;;;22.47;64.13;96229.00;5031111;28;20522;-77
2022/07/26 11:20:44;;;;;;;3.28;2.10;;;;;;;22.64;63.65;96233.72;5028996;28;20060;-77
2022/07/26 11:23:29;;;;;;;4.38;2.25;;;;;;;22.73;59.94;96231.31;5030238;28;20045;-77
2022/07/26 11:26:22;;;;;;;8.43;2.28;;;;;;;22.86;63.37;96226.13;5031171;28;20077;-78
2022/07/26 11:28:54;;;;;;;3.63;2.10;;;;;;;22.71;61.21;96221.78;5030837;28;20037;-78
2022/07/26 11:31:25;;;;;;;7.28;2.40;;;;;;;22.80;61.63;96213.84;5030668;28;20048;-77